sensor_id;sensor_type;location;lat;lon;timestamp;pressure;altitude;pressure_sealevel;temperature;humidity
23419;BME280;11882;42.522;27.458;2022-10-16T00:00:41;101892.75;;;17.27;62.49
23419;BME280;11882;42.522;27.458;2022-10-16T00:03:08;101893.97;;;17.60;59.10
23419;BME280;11882;42.522;27.458;2022-10-16T00:05:38;101892.06;;;17.87;57.83
23419;BME280;11882;42.522;27.458;2022-10-16T00:08:07;101895.59;;;17.42;60.42
23419;BME280;11882;42.522;27.458;2022-10-16T00:10:36;101893.66;;;17.37;59.96
23419;BME280;11882;42.522;27.458;2022-10-16T00:13:03;101893.88;;;17.67;57.47
23419;BME280;11882;42.522;27.458;2022-10-16T00:15:32;101896.53;;;17.86;56.86
23419;BME280;11882;42.522;27.458;2022-10-16T00:18:01;101895.06;;;17.33;59.71
23419;BME280;11882;42.522;27.458;2022-10-16T00:20:28;101895.44;;;17.27;59.35
23419;BME280;11882;42.522;27.458;2022-10-16T00:22:56;101891.00;;;17.54;56.69
23419;BME280;11882;42.522;27.458;2022-10-16T00:25:24;101894.09;;;17.81;55.42
23419;BME280;11882;42.522;27.458;2022-10-16T00:27:52;65820.00;;;-144.05;100.00
23419;BME280;11882;42.522;27.458;2022-10-16T00:30:19;101901.09;;;17.66;57.09
23419;BME280;11882;42.522;27.458;2022-10-16T00:32:46;101904.09;;;17.87;55.26
23419;BME280;11882;42.522;27.458;2022-10-16T00:35:13;101907.28;;;18.01;54.19
23419;BME280;11882;42.522;27.458;2022-10-16T00:37:39;101904.13;;;17.60;56.53
23419;BME280;11882;42.522;27.458;2022-10-16T00:40:07;101902.72;;;17.59;56.33
23419;BME280;11882;42.522;27.458;2022-10-16T00:42:34;101904.31;;;17.84;54.70
23419;BME280;11882;42.522;27.458;2022-10-16T00:45:04;101900.53;;;17.84;54.48
23419;BME280;11882;42.522;27.458;2022-10-16T00:47:35;101901.56;;;17.48;56.34
23419;BME280;11882;42.522;27.458;2022-10-16T00:50:07;101906.91;;;17.65;55.17
23419;BME280;11882;42.522;27.458;2022-10-16T00:52:36;101908.16;;;17.85;53.90
23419;BME280;11882;42.522;27.458;2022-10-16T00:55:06;101913.25;;;17.63;55.31
23419;BME280;11882;42.522;27.458;2022-10-16T00:57:35;101915.16;;;17.18;58.15
23419;BME280;11882;42.522;27.458;2022-10-16T01:00:07;101913.41;;;17.49;55.21
23419;BME280;11882;42.522;27.458;2022-10-16T01:02:35;101914.47;;;17.72;54.09
23419;BME280;11882;42.522;27.458;2022-10-16T01:05:02;101915.25;;;17.43;55.62
23419;BME280;11882;42.522;27.458;2022-10-16T01:07:36;101917.41;;;17.29;56.30
23419;BME280;11882;42.522;27.458;2022-10-16T01:10:14;101917.25;;;17.59;53.73
23419;BME280;11882;42.522;27.458;2022-10-16T01:12:48;101917.41;;;17.61;53.89
23419;BME280;11882;42.522;27.458;2022-10-16T01:15:25;101920.19;;;17.13;56.60
23419;BME280;11882;42.522;27.458;2022-10-16T01:17:57;101920.06;;;17.32;54.54
23419;BME280;11882;42.522;27.458;2022-10-16T01:20:29;101923.34;;;17.62;53.10
23419;BME280;11882;42.522;27.458;2022-10-16T01:23:13;101929.25;;;17.56;53.10
23419;BME280;11882;42.522;27.458;2022-10-16T01:25:58;101929.25;;;17.56;53.10
23419;BME280;11882;42.522;27.458;2022-10-16T01:28:34;101930.38;;;17.65;52.96
23419;BME280;11882;42.522;27.458;2022-10-16T01:31:03;101935.06;;;17.77;52.12
23419;BME280;11882;42.522;27.458;2022-10-16T01:33:35;101938.53;;;17.50;52.99
23419;BME280;11882;42.522;27.458;2022-10-16T01:36:07;101938.88;;;17.44;53.41
23419;BME280;11882;42.522;27.458;2022-10-16T01:38:38;101940.91;;;17.70;51.77
23419;BME280;11882;42.522;27.458;2022-10-16T01:41:09;101936.66;;;17.88;51.10
23419;BME280;11882;42.522;27.458;2022-10-16T01:43:39;101934.16;;;17.45;53.65
23419;BME280;11882;42.522;27.458;2022-10-16T01:46:08;101933.22;;;17.45;53.21
23419;BME280;11882;42.522;27.458;2022-10-16T01:48:37;101930.50;;;17.52;52.57
23419;BME280;11882;42.522;27.458;2022-10-16T01:51:06;101935.31;;;17.36;53.44
23419;BME280;11882;42.522;27.458;2022-10-16T01:53:36;101940.25;;;16.86;56.30
23419;BME280;11882;42.522;27.458;2022-10-16T01:56:06;101939.56;;;16.94;55.18
23419;BME280;11882;42.522;27.458;2022-10-16T01:58:39;101942.47;;;17.12;54.48
23419;BME280;11882;42.522;27.458;2022-10-16T02:01:09;65820.00;;;-144.05;100.00
23419;BME280;11882;42.522;27.458;2022-10-16T02:03:40;65820.00;;;-144.05;100.00
23419;BME280;11882;42.522;27.458;2022-10-16T02:06:09;65820.00;;;-144.05;100.00
23419;BME280;11882;42.522;27.458;2022-10-16T02:08:36;65820.00;;;-144.05;100.00
23419;BME280;11882;42.522;27.458;2022-10-16T02:11:04;101942.47;;;17.12;54.48
23419;BME280;11882;42.522;27.458;2022-10-16T02:13:35;101949.81;;;16.67;59.23
23419;BME280;11882;42.522;27.458;2022-10-16T02:16:06;101955.81;;;16.77;57.38
23419;BME280;11882;42.522;27.458;2022-10-16T02:18:34;101960.47;;;16.88;56.54
23419;BME280;11882;42.522;27.458;2022-10-16T02:21:06;101963.75;;;16.37;59.36
23419;BME280;11882;42.522;27.458;2022-10-16T02:23:45;101967.63;;;16.29;58.98
23419;BME280;11882;42.522;27.458;2022-10-16T02:26:23;101972.31;;;16.52;57.52
23419;BME280;11882;42.522;27.458;2022-10-16T02:28:55;101973.66;;;16.51;57.26
23419;BME280;11882;42.522;27.458;2022-10-16T02:31:28;101976.69;;;15.95;60.64
23419;BME280;11882;42.522;27.458;2022-10-16T02:34:00;101977.50;;;16.08;58.94
23419;BME280;11882;42.522;27.458;2022-10-16T02:36:30;101980.84;;;16.33;57.43
23419;BME280;11882;42.522;27.458;2022-10-16T02:38:58;101982.38;;;16.37;57.29
23419;BME280;11882;42.522;27.458;2022-10-16T02:41:27;101983.25;;;15.84;60.31
23419;BME280;11882;42.522;27.458;2022-10-16T02:43:54;101985.28;;;16.01;59.21
23419;BME280;11882;42.522;27.458;2022-10-16T02:46:21;101985.91;;;16.31;57.30
23419;BME280;11882;42.522;27.458;2022-10-16T02:48:49;101991.63;;;16.36;57.40
23419;BME280;11882;42.522;27.458;2022-10-16T02:51:16;101991.03;;;15.65;61.67
23419;BME280;11882;42.522;27.458;2022-10-16T02:53:44;101991.19;;;15.87;59.66
23419;BME280;11882;42.522;27.458;2022-10-16T02:56:10;101988.50;;;16.21;57.80
23419;BME280;11882;42.522;27.458;2022-10-16T02:58:37;101985.78;;;16.35;57.36
23419;BME280;11882;42.522;27.458;2022-10-16T03:01:04;101982.91;;;15.73;61.33
23419;BME280;11882;42.522;27.458;2022-10-16T03:03:31;101982.75;;;15.83;60.22
23419;BME280;11882;42.522;27.458;2022-10-16T03:05:59;101983.88;;;16.14;58.31
23419;BME280;11882;42.522;27.458;2022-10-16T03:08:27;101983.88;;;16.14;58.31
23419;BME280;11882;42.522;27.458;2022-10-16T03:10:54;101992.84;;;15.71;61.17
23419;BME280;11882;42.522;27.458;2022-10-16T03:13:22;101995.53;;;15.80;60.33
23419;BME280;11882;42.522;27.458;2022-10-16T03:15:49;101997.69;;;16.03;59.04
23419;BME280;11882;42.522;27.458;2022-10-16T03:18:16;101995.16;;;16.03;58.89
23419;BME280;11882;42.522;27.458;2022-10-16T03:20:43;101996.66;;;15.44;62.80
23419;BME280;11882;42.522;27.458;2022-10-16T03:23:12;101996.41;;;15.56;61.38
23419;BME280;11882;42.522;27.458;2022-10-16T03:25:39;101998.34;;;15.82;59.38
23419;BME280;11882;42.522;27.458;2022-10-16T03:28:06;101998.53;;;15.70;60.37
23419;BME280;11882;42.522;27.458;2022-10-16T03:30:33;102002.09;;;15.17;64.04
23419;BME280;11882;42.522;27.458;2022-10-16T03:33:00;102001.25;;;15.34;62.44
23419;BME280;11882;42.522;27.458;2022-10-16T03:35:27;101998.03;;;15.61;61.14
23419;BME280;11882;42.522;27.458;2022-10-16T03:37:55;101994.56;;;15.62;61.50
23419;BME280;11882;42.522;27.458;2022-10-16T03:40:24;101999.31;;;15.08;65.66
23419;BME280;11882;42.522;27.458;2022-10-16T03:42:51;102000.72;;;15.26;63.82
23419;BME280;11882;42.522;27.458;2022-10-16T03:45:19;102000.28;;;15.52;62.17
23419;BME280;11882;42.522;27.458;2022-10-16T03:47:46;102001.78;;;15.41;62.95
23419;BME280;11882;42.522;27.458;2022-10-16T03:50:13;102006.69;;;14.86;67.04
23419;BME280;11882;42.522;27.458;2022-10-16T03:52:40;102006.63;;;15.01;64.92
23419;BME280;11882;42.522;27.458;2022-10-16T03:55:07;102014.59;;;15.32;63.25
23419;BME280;11882;42.522;27.458;2022-10-16T03:57:35;102014.94;;;15.28;63.44
23419;BME280;11882;42.522;27.458;2022-10-16T04:00:04;102016.22;;;14.73;67.67
23419;BME280;11882;42.522;27.458;2022-10-16T04:02:31;102015.19;;;14.95;65.35
23419;BME280;11882;42.522;27.458;2022-10-16T04:04:58;102017.38;;;15.28;63.56
23419;BME280;11882;42.522;27.458;2022-10-16T04:07:25;102019.84;;;15.20;63.95
23419;BME280;11882;42.522;27.458;2022-10-16T04:09:52;102019.00;;;14.66;68.31
23419;BME280;11882;42.522;27.458;2022-10-16T04:12:18;102021.59;;;14.85;65.77
23419;BME280;11882;42.522;27.458;2022-10-16T04:14:47;102021.44;;;15.19;64.17
23419;BME280;11882;42.522;27.458;2022-10-16T04:17:13;102017.50;;;15.07;64.65
23419;BME280;11882;42.522;27.458;2022-10-16T04:19:40;102020.19;;;14.56;68.08
23419;BME280;11882;42.522;27.458;2022-10-16T04:22:07;102019.38;;;14.77;65.91
23419;BME280;11882;42.522;27.458;2022-10-16T04:24:34;102016.25;;;15.05;64.23
23419;BME280;11882;42.522;27.458;2022-10-16T04:27:01;102016.78;;;14.97;64.74
23419;BME280;11882;42.522;27.458;2022-10-16T04:29:28;102017.03;;;14.46;69.19
23419;BME280;11882;42.522;27.458;2022-10-16T04:31:57;102021.72;;;14.74;66.07
23419;BME280;11882;42.522;27.458;2022-10-16T04:34:24;102025.38;;;15.04;64.61
23419;BME280;11882;42.522;27.458;2022-10-16T04:36:51;102027.25;;;14.94;64.83
23419;BME280;11882;42.522;27.458;2022-10-16T04:39:18;102028.19;;;14.45;68.76
23419;BME280;11882;42.522;27.458;2022-10-16T04:41:45;102027.94;;;14.73;66.05
23419;BME280;11882;42.522;27.458;2022-10-16T04:44:12;102024.44;;;15.09;64.04
23419;BME280;11882;42.522;27.458;2022-10-16T04:46:39;102029.94;;;14.98;64.04
23419;BME280;11882;42.522;27.458;2022-10-16T04:49:08;102032.00;;;14.57;67.66
23419;BME280;11882;42.522;27.458;2022-10-16T04:51:35;102037.34;;;14.87;65.03
23419;BME280;11882;42.522;27.458;2022-10-16T04:54:02;102038.63;;;15.21;63.57
23419;BME280;11882;42.522;27.458;2022-10-16T04:56:29;102042.84;;;15.12;63.81
23419;BME280;11882;42.522;27.458;2022-10-16T04:58:56;102044.03;;;14.65;67.48
23419;BME280;11882;42.522;27.458;2022-10-16T05:01:23;102045.78;;;14.93;64.75
23419;BME280;11882;42.522;27.458;2022-10-16T05:03:50;102045.53;;;15.30;62.88
23419;BME280;11882;42.522;27.458;2022-10-16T05:06:18;102045.91;;;15.38;62.44
23419;BME280;11882;42.522;27.458;2022-10-16T05:08:45;102046.25;;;14.98;65.61
23419;BME280;11882;42.522;27.458;2022-10-16T05:11:12;102048.56;;;15.54;62.38
23419;BME280;11882;42.522;27.458;2022-10-16T05:13:40;102043.97;;;16.25;59.26
23419;BME280;11882;42.522;27.458;2022-10-16T05:16:07;65820.00;;;-144.05;100.00
23419;BME280;11882;42.522;27.458;2022-10-16T05:18:33;102043.84;;;15.90;62.04
23419;BME280;11882;42.522;27.458;2022-10-16T05:21:00;102046.09;;;16.12;60.41
23419;BME280;11882;42.522;27.458;2022-10-16T05:23:29;102049.91;;;16.36;58.90
23419;BME280;11882;42.522;27.458;2022-10-16T05:25:57;102051.66;;;16.27;59.11
23419;BME280;11882;42.522;27.458;2022-10-16T05:28:25;102054.59;;;15.55;63.47
23419;BME280;11882;42.522;27.458;2022-10-16T05:30:52;102058.19;;;15.69;61.71
23419;BME280;11882;42.522;27.458;2022-10-16T05:33:20;102060.13;;;15.99;59.95
23419;BME280;11882;42.522;27.458;2022-10-16T05:35:47;102064.56;;;15.92;60.28
23419;BME280;11882;42.522;27.458;2022-10-16T05:38:15;85920.44;;;15.54;100.00
23419;BME280;11882;42.522;27.458;2022-10-16T05:40:50;65820.00;;;-144.05;100.00
23419;BME280;11882;42.522;27.458;2022-10-16T05:43:17;65820.00;;;-144.05;100.00
23419;BME280;11882;42.522;27.458;2022-10-16T05:45:45;65820.00;;;-144.05;100.00
23419;BME280;11882;42.522;27.458;2022-10-16T05:48:19;102067.09;;;15.54;63.50
23419;BME280;11882;42.522;27.458;2022-10-16T05:50:46;102073.00;;;16.34;58.14
23419;BME280;11882;42.522;27.458;2022-10-16T05:53:13;102077.34;;;16.89;56.88
23419;BME280;11882;42.522;27.458;2022-10-16T05:55:40;102077.03;;;16.92;56.75
23419;BME280;11882;42.522;27.458;2022-10-16T05:58:08;102081.88;;;16.35;60.62
23419;BME280;11882;42.522;27.458;2022-10-16T06:00:35;102083.31;;;16.62;57.52
23419;BME280;11882;42.522;27.458;2022-10-16T06:03:02;102083.69;;;16.93;56.00
23419;BME280;11882;42.522;27.458;2022-10-16T06:05:30;102085.13;;;16.84;56.67
23419;BME280;11882;42.522;27.458;2022-10-16T06:07:57;102087.91;;;16.39;59.74
23419;BME280;11882;42.522;27.458;2022-10-16T06:10:23;102087.09;;;16.72;56.52
23419;BME280;11882;42.522;27.458;2022-10-16T06:12:50;102086.84;;;17.02;55.60
23419;BME280;11882;42.522;27.458;2022-10-16T06:15:19;102090.31;;;17.00;56.16
23419;BME280;11882;42.522;27.458;2022-10-16T06:17:46;102092.63;;;17.04;57.36
23419;BME280;11882;42.522;27.458;2022-10-16T06:20:13;102088.56;;;17.63;53.90
23419;BME280;11882;42.522;27.458;2022-10-16T06:22:40;102091.56;;;18.25;52.45
23419;BME280;11882;42.522;27.458;2022-10-16T06:25:08;102093.63;;;18.56;51.26
23419;BME280;11882;42.522;27.458;2022-10-16T06:27:35;102093.88;;;18.77;51.91
23419;BME280;11882;42.522;27.458;2022-10-16T06:30:02;102098.50;;;19.19;49.88
23419;BME280;11882;42.522;27.458;2022-10-16T06:32:30;102099.34;;;19.59;48.67
23419;BME280;11882;42.522;27.458;2022-10-16T06:34:57;102099.59;;;19.50;50.29
23419;BME280;11882;42.522;27.458;2022-10-16T06:37:24;102100.13;;;19.65;49.12
23419;BME280;11882;42.522;27.458;2022-10-16T06:39:51;102104.22;;;19.67;49.40
23419;BME280;11882;42.522;27.458;2022-10-16T06:42:18;102102.00;;;19.21;51.96
23419;BME280;11882;42.522;27.458;2022-10-16T06:44:45;102104.38;;;19.12;51.16
23419;BME280;11882;42.522;27.458;2022-10-16T06:47:12;102106.81;;;19.08;50.91
23419;BME280;11882;42.522;27.458;2022-10-16T06:49:40;102111.72;;;18.64;53.60
23419;BME280;11882;42.522;27.458;2022-10-16T06:52:07;102106.91;;;18.48;54.04
23419;BME280;11882;42.522;27.458;2022-10-16T06:54:34;102115.13;;;18.67;52.13
23419;BME280;11882;42.522;27.458;2022-10-16T06:57:01;102114.38;;;18.70;52.01
23419;BME280;11882;42.522;27.458;2022-10-16T06:59:28;102120.59;;;18.27;54.92
23419;BME280;11882;42.522;27.458;2022-10-16T07:01:55;102122.13;;;18.56;52.77
23419;BME280;11882;42.522;27.458;2022-10-16T07:04:22;102122.03;;;19.14;50.43
23419;BME280;11882;42.522;27.458;2022-10-16T07:06:50;102119.00;;;19.59;49.55
23419;BME280;11882;42.522;27.458;2022-10-16T07:09:17;102119.63;;;19.77;49.87
23419;BME280;11882;42.522;27.458;2022-10-16T07:11:44;102122.66;;;19.95;49.04
23419;BME280;11882;42.522;27.458;2022-10-16T07:14:15;102126.34;;;20.13;48.21
23419;BME280;11882;42.522;27.458;2022-10-16T07:16:43;102126.38;;;20.05;48.74
23419;BME280;11882;42.522;27.458;2022-10-16T07:19:10;102128.53;;;20.25;48.37
23419;BME280;11882;42.522;27.458;2022-10-16T07:21:39;102128.84;;;20.38;47.90
23419;BME280;11882;42.522;27.458;2022-10-16T07:24:12;102132.16;;;20.35;48.04
23419;BME280;11882;42.522;27.458;2022-10-16T07:26:43;102133.94;;;20.55;47.48
23419;BME280;11882;42.522;27.458;2022-10-16T07:29:12;102132.28;;;20.70;46.88
23419;BME280;11882;42.522;27.458;2022-10-16T07:31:40;102131.16;;;20.71;47.46
23419;BME280;11882;42.522;27.458;2022-10-16T07:34:07;102129.78;;;20.85;46.92
23419;BME280;11882;42.522;27.458;2022-10-16T07:36:34;102129.59;;;20.79;46.79
23419;BME280;11882;42.522;27.458;2022-10-16T07:39:01;102126.28;;;20.73;47.30
23419;BME280;11882;42.522;27.458;2022-10-16T07:41:29;102129.09;;;20.89;46.05
23419;BME280;11882;42.522;27.458;2022-10-16T07:43:59;102130.38;;;20.95;46.45
23419;BME280;11882;42.522;27.458;2022-10-16T07:46:26;102133.19;;;21.03;46.31
23419;BME280;11882;42.522;27.458;2022-10-16T07:48:53;102133.34;;;21.22;45.49
23419;BME280;11882;42.522;27.458;2022-10-16T07:51:21;102133.88;;;21.41;45.60
23419;BME280;11882;42.522;27.458;2022-10-16T07:53:49;102129.44;;;21.34;45.55
23419;BME280;11882;42.522;27.458;2022-10-16T07:56:17;102132.13;;;21.52;44.33
23419;BME280;11882;42.522;27.458;2022-10-16T07:58:46;102132.28;;;21.66;44.38
23419;BME280;11882;42.522;27.458;2022-10-16T08:01:15;102131.78;;;21.82;43.99
23419;BME280;11882;42.522;27.458;2022-10-16T08:03:43;102133.72;;;21.49;45.13
23419;BME280;11882;42.522;27.458;2022-10-16T08:06:10;102132.47;;;21.63;44.66
23419;BME280;11882;42.522;27.458;2022-10-16T08:08:37;102128.00;;;21.84;43.94
23419;BME280;11882;42.522;27.458;2022-10-16T08:11:04;102127.72;;;22.05;43.46
23419;BME280;11882;42.522;27.458;2022-10-16T08:13:32;102130.97;;;22.16;42.31
23419;BME280;11882;42.522;27.458;2022-10-16T08:16:00;102135.28;;;21.89;43.50
23419;BME280;11882;42.522;27.458;2022-10-16T08:18:29;102132.19;;;21.66;44.75
23419;BME280;11882;42.522;27.458;2022-10-16T08:20:56;102135.22;;;21.76;43.72
23419;BME280;11882;42.522;27.458;2022-10-16T08:23:24;102136.41;;;21.83;43.49
23419;BME280;11882;42.522;27.458;2022-10-16T08:25:51;102142.38;;;21.90;42.93
23419;BME280;11882;42.522;27.458;2022-10-16T08:28:19;102143.63;;;21.88;43.20
23419;BME280;11882;42.522;27.458;2022-10-16T08:30:46;102141.97;;;21.90;43.24
23419;BME280;11882;42.522;27.458;2022-10-16T08:33:14;102144.66;;;21.90;43.18
23419;BME280;11882;42.522;27.458;2022-10-16T08:35:41;102145.50;;;21.74;43.85
23419;BME280;11882;42.522;27.458;2022-10-16T08:38:08;102143.25;;;21.92;43.14
23419;BME280;11882;42.522;27.458;2022-10-16T08:40:36;102143.34;;;22.11;42.35
23419;BME280;11882;42.522;27.458;2022-10-16T08:43:18;102152.00;;;22.24;42.39
23419;BME280;11882;42.522;27.458;2022-10-16T08:48:51;102150.31;;;22.10;42.50
23419;BME280;11882;42.522;27.458;2022-10-16T08:51:21;102152.75;;;22.08;42.36
23419;BME280;11882;42.522;27.458;2022-10-16T08:53:52;102155.19;;;22.16;41.87
23419;BME280;11882;42.522;27.458;2022-10-16T08:56:20;102157.47;;;22.30;42.23
23419;BME280;11882;42.522;27.458;2022-10-16T08:58:48;102163.06;;;22.40;41.58
23419;BME280;11882;42.522;27.458;2022-10-16T09:01:19;102164.75;;;22.30;41.63
23419;BME280;11882;42.522;27.458;2022-10-16T09:06:50;102169.66;;;22.53;41.10
23419;BME280;11882;42.522;27.458;2022-10-16T09:09:35;102171.50;;;22.59;41.04
23419;BME280;11882;42.522;27.458;2022-10-16T09:12:08;102168.53;;;22.29;42.74
23419;BME280;11882;42.522;27.458;2022-10-16T09:14:56;102166.59;;;22.43;40.85
23419;BME280;11882;42.522;27.458;2022-10-16T09:17:44;102165.72;;;22.49;41.09
23419;BME280;11882;42.522;27.458;2022-10-16T09:20:31;102170.78;;;22.47;40.77
23419;BME280;11882;42.522;27.458;2022-10-16T09:23:14;102167.81;;;22.43;41.57
23419;BME280;11882;42.522;27.458;2022-10-16T09:25:44;102171.28;;;22.55;40.51
23419;BME280;11882;42.522;27.458;2022-10-16T09:28:12;102171.88;;;22.65;40.76
23419;BME280;11882;42.522;27.458;2022-10-16T09:30:42;102173.19;;;22.44;41.34
23419;BME280;11882;42.522;27.458;2022-10-16T09:33:11;102173.09;;;22.61;40.20
23419;BME280;11882;42.522;27.458;2022-10-16T09:35:43;102165.69;;;22.77;39.77
23419;BME280;11882;42.522;27.458;2022-10-16T09:38:21;102168.19;;;22.78;40.02
23419;BME280;11882;42.522;27.458;2022-10-16T09:40:49;102174.63;;;22.90;39.82
23419;BME280;11882;42.522;27.458;2022-10-16T09:43:21;102177.03;;;23.10;39.64
23419;BME280;11882;42.522;27.458;2022-10-16T09:45:57;102179.91;;;22.86;39.53
23419;BME280;11882;42.522;27.458;2022-10-16T09:48:27;102176.63;;;22.78;40.46
23419;BME280;11882;42.522;27.458;2022-10-16T09:50:58;102179.34;;;22.88;39.99
23419;BME280;11882;42.522;27.458;2022-10-16T09:53:27;102179.06;;;22.98;39.31
23419;BME280;11882;42.522;27.458;2022-10-16T09:56:04;102175.72;;;22.67;41.11
23419;BME280;11882;42.522;27.458;2022-10-16T09:58:32;102174.75;;;22.75;40.60
23419;BME280;11882;42.522;27.458;2022-10-16T10:00:59;102176.25;;;22.93;39.78
23419;BME280;11882;42.522;27.458;2022-10-16T10:03:38;102171.03;;;23.02;39.57
23419;BME280;11882;42.522;27.458;2022-10-16T10:06:18;102175.44;;;22.97;40.20
23419;BME280;11882;42.522;27.458;2022-10-16T10:08:56;102169.78;;;22.94;40.46
23419;BME280;11882;42.522;27.458;2022-10-16T10:11:45;102170.69;;;23.09;39.54
23419;BME280;11882;42.522;27.458;2022-10-16T10:14:22;102173.59;;;23.20;39.38
23419;BME280;11882;42.522;27.458;2022-10-16T10:16:50;102174.59;;;23.18;39.28
23419;BME280;11882;42.522;27.458;2022-10-16T10:19:19;65820.00;;;-144.05;100.00
23419;BME280;11882;42.522;27.458;2022-10-16T10:21:49;65820.00;;;-144.05;100.00
23419;BME280;11882;42.522;27.458;2022-10-16T10:24:18;65820.00;;;-144.05;100.00
23419;BME280;11882;42.522;27.458;2022-10-16T10:26:51;65820.00;;;-144.05;100.00
23419;BME280;11882;42.522;27.458;2022-10-16T10:29:36;65820.00;;;-144.05;100.00
23419;BME280;11882;42.522;27.458;2022-10-16T10:32:16;65820.00;;;-144.05;100.00
23419;BME280;11882;42.522;27.458;2022-10-16T10:34:54;65820.00;;;-144.05;100.00
23419;BME280;11882;42.522;27.458;2022-10-16T10:37:37;65820.00;;;-144.05;100.00
23419;BME280;11882;42.522;27.458;2022-10-16T10:40:11;65820.00;;;-144.05;100.00
23419;BME280;11882;42.522;27.458;2022-10-16T10:42:41;65820.00;;;-144.05;100.00
23419;BME280;11882;42.522;27.458;2022-10-16T10:45:18;65820.00;;;-144.05;100.00
23419;BME280;11882;42.522;27.458;2022-10-16T10:48:05;65820.00;;;-144.05;100.00
23419;BME280;11882;42.522;27.458;2022-10-16T10:50:38;65820.00;;;-144.05;100.00
23419;BME280;11882;42.522;27.458;2022-10-16T10:53:09;65820.00;;;-144.05;100.00
23419;BME280;11882;42.522;27.458;2022-10-16T10:55:39;65820.00;;;-144.05;100.00
23419;BME280;11882;42.522;27.458;2022-10-16T10:58:11;65820.00;;;-144.05;100.00
23419;BME280;11882;42.522;27.458;2022-10-16T11:00:44;65820.00;;;-144.05;100.00
23419;BME280;11882;42.522;27.458;2022-10-16T11:03:17;65820.00;;;-144.05;100.00
23419;BME280;11882;42.522;27.458;2022-10-16T11:05:51;65820.00;;;-144.05;100.00
23419;BME280;11882;42.522;27.458;2022-10-16T11:08:23;65820.00;;;-144.05;100.00
23419;BME280;11882;42.522;27.458;2022-10-16T11:10:53;65820.00;;;-144.05;100.00
23419;BME280;11882;42.522;27.458;2022-10-16T11:13:26;65820.00;;;-144.05;100.00
23419;BME280;11882;42.522;27.458;2022-10-16T11:15:57;65820.00;;;-144.05;100.00
23419;BME280;11882;42.522;27.458;2022-10-16T11:18:25;65820.00;;;-144.05;100.00
23419;BME280;11882;42.522;27.458;2022-10-16T11:20:54;65820.00;;;-144.05;100.00
23419;BME280;11882;42.522;27.458;2022-10-16T11:23:25;65820.00;;;-144.05;100.00
23419;BME280;11882;42.522;27.458;2022-10-16T11:25:53;65820.00;;;-144.05;100.00
23419;BME280;11882;42.522;27.458;2022-10-16T11:28:23;65820.00;;;-144.05;100.00
23419;BME280;11882;42.522;27.458;2022-10-16T11:30:54;65820.00;;;-144.05;100.00
23419;BME280;11882;42.522;27.458;2022-10-16T11:33:25;65820.00;;;-144.05;100.00
23419;BME280;11882;42.522;27.458;2022-10-16T11:35:58;65820.00;;;-144.05;100.00
23419;BME280;11882;42.522;27.458;2022-10-16T11:38:29;65820.00;;;-144.05;100.00
23419;BME280;11882;42.522;27.458;2022-10-16T11:40:59;65820.00;;;-144.05;100.00
23419;BME280;11882;42.522;27.458;2022-10-16T11:43:28;65820.00;;;-144.05;100.00
23419;BME280;11882;42.522;27.458;2022-10-16T11:46:01;65820.00;;;-144.05;100.00
23419;BME280;11882;42.522;27.458;2022-10-16T11:48:30;65820.00;;;-144.05;100.00
23419;BME280;11882;42.522;27.458;2022-10-16T11:51:00;65820.00;;;-144.05;100.00
23419;BME280;11882;42.522;27.458;2022-10-16T11:53:43;65820.00;;;-144.05;100.00
23419;BME280;11882;42.522;27.458;2022-10-16T11:56:13;65820.00;;;-144.05;100.00
23419;BME280;11882;42.522;27.458;2022-10-16T11:58:50;65820.00;;;-144.05;100.00
23419;BME280;11882;42.522;27.458;2022-10-16T12:01:22;65820.00;;;-144.05;100.00
23419;BME280;11882;42.522;27.458;2022-10-16T12:04:02;65820.00;;;-144.05;100.00
23419;BME280;11882;42.522;27.458;2022-10-16T12:06:34;102166.75;;;22.01;52.02
23419;BME280;11882;42.522;27.458;2022-10-16T12:09:05;102163.19;;;21.60;51.59
23419;BME280;11882;42.522;27.458;2022-10-16T12:11:38;102163.38;;;21.34;51.41
23419;BME280;11882;42.522;27.458;2022-10-16T12:14:21;102166.91;;;21.04;53.30
23419;BME280;11882;42.522;27.458;2022-10-16T12:16:54;102171.06;;;21.04;52.53
23419;BME280;11882;42.522;27.458;2022-10-16T12:19:23;102173.22;;;20.99;51.19
23419;BME280;11882;42.522;27.458;2022-10-16T12:21:51;102177.63;;;20.58;53.83
23419;BME280;11882;42.522;27.458;2022-10-16T12:24:30;102180.59;;;20.55;52.91
23419;BME280;11882;42.522;27.458;2022-10-16T12:26:58;65820.00;;;-144.05;100.00
23419;BME280;11882;42.522;27.458;2022-10-16T12:29:32;65820.00;;;-144.05;100.00
23419;BME280;11882;42.522;27.458;2022-10-16T12:32:00;65820.00;;;-144.05;100.00
23419;BME280;11882;42.522;27.458;2022-10-16T12:34:29;65820.00;;;-144.05;100.00
23419;BME280;11882;42.522;27.458;2022-10-16T12:37:08;65820.00;;;-144.05;100.00
23419;BME280;11882;42.522;27.458;2022-10-16T12:39:37;65820.00;;;-144.05;100.00
23419;BME280;11882;42.522;27.458;2022-10-16T12:42:06;65820.00;;;-144.05;100.00
23419;BME280;11882;42.522;27.458;2022-10-16T12:44:46;65820.00;;;-144.05;100.00
23419;BME280;11882;42.522;27.458;2022-10-16T12:47:21;65820.00;;;-144.05;100.00
23419;BME280;11882;42.522;27.458;2022-10-16T12:49:49;65820.00;;;-144.05;100.00
23419;BME280;11882;42.522;27.458;2022-10-16T12:52:26;65820.00;;;-144.05;100.00
23419;BME280;11882;42.522;27.458;2022-10-16T12:54:57;65820.00;;;-144.05;100.00